createdAt,value
2019-05-29T00:00:30.490Z,74.76
2019-05-29T00:03:06.261Z,74.85
2019-05-29T00:05:41.321Z,75.03
2019-05-29T00:08:16.398Z,74.71
2019-05-29T00:10:51.412Z,74.52
2019-05-29T00:13:26.364Z,74.62
2019-05-29T00:16:01.403Z,74.56
2019-05-29T00:18:36.404Z,74.46
2019-05-29T00:21:11.977Z,74.78
2019-05-29T00:23:48.210Z,75.36
2019-05-29T00:26:23.257Z,75.60
2019-05-29T00:28:58.345Z,75.22
2019-05-29T00:31:33.689Z,75.34
2019-05-29T00:34:08.976Z,75.21
2019-05-29T00:36:44.026Z,75.31
2019-05-29T00:39:19.141Z,75.27
2019-05-29T00:41:54.049Z,75.16
2019-05-29T00:44:34.412Z,75.13
2019-05-29T00:47:07.437Z,75.40
2019-05-29T00:49:42.493Z,75.20
2019-05-29T00:52:18.360Z,75.67
2019-05-29T00:54:53.642Z,75.84
2019-05-29T00:57:29.717Z,76.03
2019-05-29T01:00:05.378Z,75.98
2019-05-29T01:02:40.506Z,76.25
2019-05-29T01:05:16.203Z,76.21
2019-05-29T01:07:51.417Z,76.33
2019-05-29T01:10:26.479Z,76.02
2019-05-29T01:13:01.395Z,76.11
2019-05-29T01:15:36.459Z,76.13
2019-05-29T01:18:11.706Z,75.74
2019-05-29T01:20:46.767Z,75.24
2019-05-29T01:23:22.443Z,75.53
2019-05-29T01:25:57.905Z,75.72
2019-05-29T01:28:33.171Z,75.74
2019-05-29T01:31:08.892Z,75.81
2019-05-29T01:33:43.820Z,76.06
2019-05-29T01:36:19.975Z,75.81
2019-05-29T01:38:55.053Z,75.94
2019-05-29T01:41:31.084Z,76.28
2019-05-29T01:44:06.022Z,76.63
2019-05-29T01:46:41.081Z,77.16
2019-05-29T01:49:16.424Z,76.84
2019-05-29T01:51:52.803Z,76.49
2019-05-29T01:54:28.021Z,76.53
2019-05-29T01:57:04.054Z,76.82
2019-05-29T01:59:38.987Z,76.46
2019-05-29T02:02:14.040Z,76.64
2019-05-29T02:04:49.017Z,76.20
2019-05-29T02:07:24.091Z,76.19
2019-05-29T02:09:59.146Z,75.94
2019-05-29T02:12:34.825Z,76.12
2019-05-29T02:15:24.794Z,76.08
2019-05-29T02:17:47.729Z,76.13
2019-05-29T02:20:27.900Z,75.74
2019-05-29T02:23:03.683Z,75.59
2019-05-29T02:25:38.758Z,76.69
2019-05-29T02:28:14.502Z,77.01
2019-05-29T02:30:49.451Z,77.05
2019-05-29T02:33:26.146Z,77.10
2019-05-29T02:36:01.907Z,76.98
2019-05-29T02:38:37.652Z,76.19
2019-05-29T02:41:12.571Z,76.68
2019-05-29T02:43:47.819Z,76.35
2019-05-29T02:46:24.005Z,76.72
2019-05-29T02:48:59.507Z,77.03
2019-05-29T02:51:34.545Z,76.79
2019-05-29T02:54:10.262Z,76.49
2019-05-29T02:56:45.319Z,76.13
2019-05-29T02:59:21.103Z,76.32
2019-05-29T03:01:56.177Z,76.95
2019-05-29T03:04:32.815Z,76.85
2019-05-29T03:07:09.167Z,76.85
2019-05-29T03:09:44.307Z,76.39
2019-05-29T03:12:19.250Z,75.56
2019-05-29T03:14:54.306Z,75.86
2019-05-29T03:17:29.774Z,76.11
2019-05-29T03:20:05.158Z,76.46
2019-05-29T03:22:40.079Z,76.64
2019-05-29T03:25:15.140Z,76.55
2019-05-29T03:27:50.100Z,76.69
2019-05-29T03:30:29.765Z,76.87
2019-05-29T03:33:02.565Z,77.25
2019-05-29T03:35:46.195Z,77.17
2019-05-29T03:38:14.342Z,77.09
2019-05-29T03:40:49.448Z,77.81
2019-05-29T03:43:24.375Z,77.67
2019-05-29T03:45:59.438Z,77.37
2019-05-29T03:48:34.635Z,77.53
2019-05-29T03:51:09.686Z,78.12
2019-05-29T03:53:45.905Z,77.94
2019-05-29T03:56:20.950Z,78.32
2019-05-29T03:58:56.036Z,78.55
2019-05-29T04:01:31.798Z,78.15
2019-05-29T04:04:07.744Z,77.50
2019-05-29T04:06:47.066Z,77.88
2019-05-29T04:09:19.446Z,77.94
2019-05-29T04:11:55.138Z,76.96
2019-05-29T04:14:31.522Z,77.56
2019-05-29T04:17:08.100Z,77.55
2019-05-29T04:19:44.903Z,77.88
2019-05-29T04:22:24.797Z,77.14
2019-05-29T04:25:02.688Z,76.93
2019-05-29T04:27:40.412Z,77.55
2019-05-29T04:30:15.852Z,77.99
2019-05-29T04:32:50.989Z,77.32
2019-05-29T04:35:26.165Z,76.82
2019-05-29T04:38:01.130Z,77.33
2019-05-29T04:40:37.439Z,77.83
2019-05-29T04:43:12.861Z,77.38
2019-05-29T04:45:47.946Z,77.34
2019-05-29T04:48:22.979Z,77.16
2019-05-29T04:50:57.976Z,77.32
2019-05-29T04:53:35.132Z,76.72
2019-05-29T04:56:10.491Z,76.77
2019-05-29T04:58:45.550Z,76.98
2019-05-29T05:01:20.629Z,76.23
2019-05-29T05:03:55.561Z,76.22
2019-05-29T05:06:31.186Z,76.11
2019-05-29T05:09:07.922Z,75.04
2019-05-29T05:11:42.977Z,76.00
2019-05-29T05:14:17.960Z,75.45
2019-05-29T05:16:54.054Z,75.91
2019-05-29T05:19:29.727Z,74.77
2019-05-29T05:22:06.486Z,74.37
2019-05-29T05:24:43.978Z,75.04
2019-05-29T05:27:18.245Z,74.45
2019-05-29T05:29:53.296Z,74.54
2019-05-29T05:32:28.372Z,74.32
2019-05-29T05:35:03.749Z,73.88
2019-05-29T05:37:38.948Z,74.00
2019-05-29T05:40:13.987Z,73.20
2019-05-29T05:42:49.741Z,72.38
2019-05-29T05:45:24.742Z,72.86
2019-05-29T05:47:59.927Z,72.53
2019-05-29T05:50:35.104Z,72.66
2019-05-29T05:53:10.832Z,72.02
2019-05-29T05:55:45.819Z,72.56
2019-05-29T05:58:20.894Z,72.50
2019-05-29T06:00:56.304Z,71.30
2019-05-29T06:03:31.855Z,70.87
2019-05-29T06:06:07.120Z,71.47
2019-05-29T06:08:43.169Z,71.67
2019-05-29T06:11:19.230Z,71.78
2019-05-29T06:13:54.354Z,70.95
2019-05-29T06:16:29.728Z,70.42
2019-05-29T06:19:11.119Z,69.53
2019-05-29T06:21:46.073Z,69.31
2019-05-29T06:24:21.287Z,66.74
2019-05-29T06:26:56.467Z,64.67
2019-05-29T06:29:31.603Z,65.84
2019-05-29T06:32:07.610Z,65.55
2019-05-29T06:34:43.816Z,64.66
2019-05-29T06:37:19.115Z,65.11
2019-05-29T06:39:54.233Z,65.87
2019-05-29T06:42:29.377Z,66.28
2019-05-29T06:45:05.198Z,64.66
2019-05-29T06:47:42.752Z,63.37
2019-05-29T06:50:18.408Z,64.58
2019-05-29T06:52:53.463Z,62.38
2019-05-29T06:55:28.619Z,61.99
2019-05-29T06:58:03.810Z,62.35
2019-05-29T07:00:39.382Z,63.04
2019-05-29T07:03:15.853Z,63.43
2019-05-29T07:05:52.849Z,62.98
2019-05-29T07:08:38.228Z,62.41
2019-05-29T07:11:04.478Z,61.79
2019-05-29T07:13:41.893Z,61.36
2019-05-29T07:16:16.621Z,60.80
2019-05-29T07:21:28.642Z,58.82
2019-05-29T07:24:04.544Z,60.83
2019-05-29T07:26:41.004Z,58.43
2019-05-29T07:29:16.278Z,59.25
2019-05-29T07:31:52.609Z,58.91
2019-05-29T07:34:27.914Z,57.60
2019-05-29T07:37:03.733Z,57.64
2019-05-29T07:39:39.703Z,57.27
2019-05-29T07:42:22.834Z,56.27
2019-05-29T07:44:58.689Z,56.38
2019-05-29T07:47:35.083Z,56.19
2019-05-29T07:50:10.531Z,59.15
2019-05-29T07:52:47.112Z,57.36
2019-05-29T07:55:23.943Z,56.79
2019-05-29T07:57:58.992Z,54.87
2019-05-29T08:00:36.176Z,54.66
2019-05-29T08:03:11.036Z,53.51
2019-05-29T08:05:51.008Z,54.00
2019-05-29T08:08:23.094Z,53.13
2019-05-29T08:10:58.914Z,52.32
2019-05-29T08:13:34.247Z,53.62
2019-05-29T08:16:09.479Z,53.44
2019-05-29T08:18:46.196Z,53.48
2019-05-29T08:21:21.884Z,56.50
2019-05-29T08:23:57.413Z,54.25
2019-05-29T08:26:33.139Z,54.72
2019-05-29T08:29:08.471Z,55.15
2019-05-29T08:31:44.736Z,55.95
2019-05-29T08:34:19.975Z,51.75
2019-05-29T08:37:06.571Z,51.09
2019-05-29T08:39:36.630Z,50.45
2019-05-29T08:42:22.380Z,50.92
2019-05-29T08:44:47.662Z,50.51
2019-05-29T08:47:22.873Z,50.90
2019-05-29T08:50:16.722Z,50.82
2019-05-29T08:52:36.107Z,50.39
2019-05-29T08:55:13.859Z,51.33
2019-05-29T08:57:50.447Z,52.27
2019-05-29T09:00:26.796Z,53.34
2019-05-29T09:03:06.860Z,52.24
2019-05-29T09:05:42.781Z,49.95
2019-05-29T09:08:18.168Z,47.23
2019-05-29T09:10:54.111Z,50.23
2019-05-29T09:13:29.621Z,51.88
2019-05-29T09:16:04.728Z,52.54
2019-05-29T09:18:39.742Z,52.24
2019-05-29T09:21:16.286Z,50.55
2019-05-29T09:23:51.856Z,49.16
2019-05-29T09:26:27.253Z,50.35
2019-05-29T09:29:02.331Z,51.57
2019-05-29T09:31:38.167Z,51.64
2019-05-29T09:34:13.715Z,50.58
2019-05-29T09:36:50.597Z,48.68
2019-05-29T09:39:25.969Z,49.48
2019-05-29T09:42:02.292Z,48.05
2019-05-29T09:44:39.094Z,47.58
2019-05-29T09:47:16.790Z,47.38
2019-05-29T09:49:51.036Z,49.87
2019-05-29T09:52:30.254Z,48.57
2019-05-29T09:55:03.026Z,50.63
2019-05-29T09:57:38.589Z,50.17
2019-05-29T10:00:14.991Z,49.23
2019-05-29T10:02:50.222Z,48.94
2019-05-29T10:05:25.380Z,47.16
2019-05-29T10:08:02.363Z,46.88
2019-05-29T10:10:37.512Z,45.91
2019-05-29T10:13:12.775Z,46.98
2019-05-29T10:15:47.971Z,45.19
2019-05-29T10:18:31.930Z,46.92
2019-05-29T10:21:01.283Z,45.76
2019-05-29T10:23:36.504Z,45.12
2019-05-29T10:26:14.415Z,44.62
2019-05-29T10:29:02.809Z,44.13
2019-05-29T10:31:26.485Z,44.68
2019-05-29T10:34:02.285Z,44.80
2019-05-29T10:36:38.136Z,44.63
2019-05-29T10:39:13.259Z,44.16
2019-05-29T10:41:48.866Z,42.90
2019-05-29T10:44:25.429Z,45.56
2019-05-29T10:47:00.800Z,44.73
2019-05-29T10:49:36.057Z,44.50
2019-05-29T10:52:16.460Z,43.46
2019-05-29T10:54:48.264Z,43.99
2019-05-29T10:57:23.301Z,42.06
2019-05-29T10:59:58.467Z,42.58
2019-05-29T11:02:33.852Z,42.30
2019-05-29T11:05:09.425Z,43.65
2019-05-29T11:07:45.712Z,42.85
2019-05-29T11:10:21.048Z,41.50
2019-05-29T11:12:57.178Z,43.07
2019-05-29T11:15:32.514Z,43.50
2019-05-29T11:18:10.936Z,45.74
2019-05-29T11:20:47.249Z,43.28
2019-05-29T11:23:22.409Z,44.34
2019-05-29T11:25:58.221Z,43.31
2019-05-29T11:28:34.765Z,44.24
2019-05-29T11:31:10.665Z,44.26
2019-05-29T11:33:46.070Z,43.56
2019-05-29T11:36:21.292Z,45.23
2019-05-29T11:38:57.324Z,42.30
2019-05-29T11:41:35.750Z,42.55
2019-05-29T11:44:11.883Z,42.58
2019-05-29T11:46:47.175Z,43.01
2019-05-29T11:49:22.414Z,43.86
2019-05-29T11:52:18.690Z,41.46
2019-05-29T11:54:35.568Z,41.65
2019-05-29T11:57:11.639Z,42.91
2019-05-29T11:59:47.561Z,43.29
2019-05-29T12:02:23.025Z,40.82
2019-05-29T12:05:02.696Z,41.79
2019-05-29T12:07:37.743Z,42.57
2019-05-29T12:10:14.797Z,37.74
2019-05-29T12:12:53.843Z,40.38
2019-05-29T12:15:28.909Z,42.03
2019-05-29T12:18:22.199Z,41.42
2019-05-29T12:20:40.829Z,42.02
2019-05-29T12:23:25.699Z,41.02
2019-05-29T12:26:12.533Z,37.94
2019-05-29T12:28:29.436Z,38.48
2019-05-29T12:31:04.754Z,39.16
2019-05-29T12:33:39.913Z,38.44
2019-05-29T12:36:15.149Z,37.61
2019-05-29T12:38:50.187Z,38.47
2019-05-29T12:41:25.245Z,37.92
2019-05-29T12:44:01.992Z,38.23
2019-05-29T12:46:37.164Z,39.82
2019-05-29T12:49:12.658Z,35.52
2019-05-29T12:51:47.821Z,34.02
2019-05-29T12:54:23.188Z,34.79
2019-05-29T12:56:59.947Z,33.22
2019-05-29T12:59:35.210Z,34.54
2019-05-29T13:02:10.308Z,32.30
2019-05-29T13:05:07.109Z,33.25
2019-05-29T13:07:25.245Z,34.49
2019-05-29T13:10:02.825Z,34.75
2019-05-29T13:12:38.457Z,38.09
2019-05-29T13:15:16.068Z,38.63
2019-05-29T13:17:55.540Z,33.83
2019-05-29T13:20:28.081Z,32.87
2019-05-29T13:23:05.466Z,31.83
2019-05-29T13:25:40.363Z,34.55
2019-05-29T13:28:15.378Z,35.29
2019-05-29T13:30:50.571Z,36.21
2019-05-29T13:33:25.607Z,37.56
2019-05-29T13:36:02.125Z,37.48
2019-05-29T13:38:37.409Z,37.15
2019-05-29T13:41:12.468Z,37.28
2019-05-29T13:43:47.651Z,37.00
2019-05-29T13:46:27.964Z,34.21
2019-05-29T13:49:03.240Z,35.35
2019-05-29T13:51:38.443Z,34.22
2019-05-29T13:54:17.723Z,34.10
2019-05-29T13:56:50.990Z,29.18
2019-05-29T13:59:29.177Z,28.04
2019-05-29T14:02:06.309Z,29.48
2019-05-29T14:04:41.506Z,30.43
2019-05-29T14:07:16.659Z,32.12
2019-05-29T14:09:51.821Z,31.78
2019-05-29T14:12:28.080Z,31.73
2019-05-29T14:15:04.486Z,33.10
2019-05-29T14:17:42.239Z,32.12
2019-05-29T14:20:18.062Z,34.44
2019-05-29T14:22:53.208Z,34.98
2019-05-29T14:25:28.339Z,32.43
2019-05-29T14:28:04.559Z,28.42
2019-05-29T14:30:39.775Z,27.21
2019-05-29T14:33:15.398Z,27.90
2019-05-29T14:35:50.518Z,29.17
2019-05-29T14:38:26.448Z,30.84
2019-05-29T14:41:03.556Z,33.64
2019-05-29T14:43:40.066Z,32.87
2019-05-29T14:46:18.074Z,34.14
2019-05-29T14:48:53.250Z,33.28
2019-05-29T14:51:28.866Z,37.09
2019-05-29T14:54:04.735Z,36.53
2019-05-29T14:56:40.065Z,37.50
2019-05-29T14:59:15.579Z,36.55
2019-05-29T15:01:51.533Z,36.62
2019-05-29T15:04:26.844Z,38.27
2019-05-29T15:07:06.063Z,36.01
2019-05-29T15:09:41.208Z,37.57
2019-05-29T15:12:16.718Z,36.03
2019-05-29T15:14:52.007Z,35.45
2019-05-29T15:17:27.190Z,36.34
2019-05-29T15:20:03.552Z,38.79
2019-05-29T15:22:39.500Z,39.81
2019-05-29T15:25:23.491Z,39.56
2019-05-29T15:27:52.786Z,38.03
2019-05-29T15:30:28.670Z,38.31
2019-05-29T15:33:03.905Z,39.77
2019-05-29T15:35:39.634Z,37.31
2019-05-29T15:38:16.929Z,37.17
2019-05-29T15:40:52.244Z,36.85
2019-05-29T15:43:27.399Z,36.85
2019-05-29T15:46:03.376Z,38.51
2019-05-29T15:48:38.666Z,37.91
2019-05-29T15:51:15.098Z,40.28
2019-05-29T15:53:50.573Z,39.70
2019-05-29T15:56:28.145Z,39.33
2019-05-29T15:59:02.810Z,38.30
2019-05-29T16:01:39.526Z,37.93
2019-05-29T16:04:15.768Z,38.88
2019-05-29T16:06:54.871Z,39.64
2019-05-29T16:09:29.841Z,39.28
2019-05-29T16:12:08.555Z,38.74
2019-05-29T16:14:43.788Z,39.39
2019-05-29T16:17:54.471Z,38.50
2019-05-29T16:21:06.499Z,40.66
2019-05-29T16:24:19.779Z,41.77
2019-05-29T16:27:08.011Z,40.82
2019-05-29T16:29:32.480Z,41.17
2019-05-29T16:32:08.466Z,38.18
2019-05-29T16:34:44.632Z,38.41
2019-05-29T16:37:20.046Z,40.34
2019-05-29T16:39:55.234Z,41.86
2019-05-29T16:42:30.394Z,41.27
2019-05-29T16:45:06.756Z,40.93
2019-05-29T16:47:41.816Z,42.16
2019-05-29T16:50:19.464Z,38.77
2019-05-29T16:52:56.147Z,38.47
2019-05-29T16:55:31.277Z,40.17
2019-05-29T16:58:06.649Z,39.47
2019-05-29T17:00:41.768Z,38.03
2019-05-29T17:03:17.672Z,37.99
2019-05-29T17:05:53.217Z,35.49
2019-05-29T17:08:28.244Z,34.98
2019-05-29T17:11:05.037Z,35.43
2019-05-29T17:13:43.330Z,34.25
2019-05-29T17:16:18.574Z,34.92
2019-05-29T17:18:55.253Z,36.30
2019-05-29T17:21:30.271Z,36.28
2019-05-29T17:24:05.443Z,38.50
2019-05-29T17:26:40.646Z,39.59
2019-05-29T17:29:16.968Z,40.91
2019-05-29T17:31:51.972Z,40.09
2019-05-29T17:34:27.809Z,41.54
2019-05-29T17:37:03.026Z,42.36
2019-05-29T17:39:38.111Z,42.11
2019-05-29T17:42:48.021Z,41.17
2019-05-29T17:45:25.745Z,42.48
2019-05-29T17:48:00.638Z,43.56
2019-05-29T17:50:35.785Z,41.93
2019-05-29T17:53:11.026Z,42.70
2019-05-29T17:55:47.215Z,42.01
2019-05-29T17:58:24.703Z,42.63
2019-05-29T18:00:59.991Z,40.73
2019-05-29T18:03:35.689Z,39.75
2019-05-29T18:06:11.274Z,38.65
2019-05-29T18:08:46.324Z,40.24
2019-05-29T18:11:21.503Z,40.23
2019-05-29T18:13:56.659Z,40.73
2019-05-29T18:16:32.532Z,42.99
2019-05-29T18:19:28.365Z,43.35
2019-05-29T18:22:03.619Z,44.58
2019-05-29T18:24:38.787Z,43.76
2019-05-29T18:27:13.985Z,44.21
2019-05-29T18:29:49.205Z,46.20
2019-05-29T18:32:24.535Z,45.22
2019-05-29T18:35:00.348Z,45.28
2019-05-29T18:37:35.481Z,44.35
2019-05-29T18:40:12.816Z,46.06
2019-05-29T18:42:48.256Z,45.76
2019-05-29T18:45:27.889Z,43.27
2019-05-29T18:48:07.538Z,45.42
2019-05-29T18:50:44.366Z,43.58
2019-05-29T18:53:20.708Z,43.74
2019-05-29T18:55:55.847Z,45.88
2019-05-29T18:58:32.898Z,46.70
2019-05-29T19:01:14.154Z,47.90
2019-05-29T19:03:51.580Z,47.83
2019-05-29T19:06:27.662Z,47.55
2019-05-29T19:09:04.197Z,48.55
2019-05-29T19:11:39.545Z,49.48
2019-05-29T19:14:14.703Z,49.48
2019-05-29T19:16:49.950Z,50.48
2019-05-29T19:19:26.190Z,51.49
2019-05-29T19:22:03.713Z,51.87
2019-05-29T19:24:38.859Z,51.70
2019-05-29T19:27:27.965Z,52.06
2019-05-29T19:29:50.965Z,52.44
2019-05-29T19:32:27.309Z,52.14
2019-05-29T19:35:03.567Z,53.21
2019-05-29T19:37:39.238Z,54.15
2019-05-29T19:40:14.721Z,53.84
2019-05-29T19:42:49.781Z,54.63
2019-05-29T19:45:26.448Z,54.65
2019-05-29T19:48:01.945Z,55.78
2019-05-29T19:50:39.739Z,56.00
2019-05-29T19:53:15.998Z,56.40
2019-05-29T19:55:51.228Z,57.50
2019-05-29T19:58:27.662Z,57.97
2019-05-29T20:01:06.777Z,58.14
2019-05-29T20:03:42.692Z,58.36
2019-05-29T20:06:17.961Z,58.79
2019-05-29T20:08:53.320Z,58.53
2019-05-29T20:11:29.433Z,58.42
2019-05-29T20:14:07.593Z,58.31
2019-05-29T20:16:43.125Z,59.31
2019-05-29T20:19:18.333Z,59.48
2019-05-29T20:21:54.549Z,59.33
2019-05-29T20:24:30.700Z,59.56
2019-05-29T20:27:05.995Z,59.87
2019-05-29T20:29:41.135Z,60.04
2019-05-29T20:32:18.619Z,59.82
2019-05-29T20:34:53.899Z,59.53
2019-05-29T20:37:30.002Z,60.28
2019-05-29T20:40:05.499Z,60.23
2019-05-29T20:42:40.793Z,60.29
2019-05-29T20:45:16.475Z,60.03
2019-05-29T20:47:53.168Z,60.37
2019-05-29T20:50:28.947Z,60.48
2019-05-29T20:53:04.172Z,60.96
2019-05-29T20:55:39.788Z,61.47
2019-05-29T20:58:24.479Z,61.80
2019-05-29T21:00:51.813Z,61.71
2019-05-29T21:03:27.276Z,62.19
2019-05-29T21:06:03.500Z,62.05
2019-05-29T21:08:38.970Z,62.13
2019-05-29T21:11:14.658Z,62.46
2019-05-29T21:13:49.798Z,62.46
2019-05-29T21:16:24.937Z,62.80
2019-05-29T21:19:00.125Z,62.55
2019-05-29T21:21:36.251Z,62.61
2019-05-29T21:24:11.501Z,62.93
2019-05-29T21:26:46.520Z,63.56
2019-05-29T21:29:21.586Z,63.41
2019-05-29T21:31:56.621Z,63.85
2019-05-29T21:34:31.698Z,63.69
2019-05-29T21:37:06.863Z,63.84
2019-05-29T21:39:42.429Z,63.51
2019-05-29T21:42:19.194Z,63.64
2019-05-29T21:44:54.251Z,63.91
2019-05-29T21:47:29.457Z,63.95
2019-05-29T21:50:05.082Z,63.65
2019-05-29T21:52:41.443Z,62.58
2019-05-29T21:55:17.348Z,63.10
2019-05-29T21:57:52.520Z,62.62
2019-05-29T22:00:35.867Z,63.44
2019-05-29T22:03:11.100Z,63.82
2019-05-29T22:05:46.795Z,61.85
2019-05-29T22:08:23.049Z,62.47
2019-05-29T22:10:59.612Z,62.99
2019-05-29T22:13:34.964Z,62.13
2019-05-29T22:16:10.207Z,62.62
2019-05-29T22:18:45.451Z,62.07
2019-05-29T22:21:20.640Z,62.46
2019-05-29T22:23:57.109Z,62.18
2019-05-29T22:26:32.274Z,62.23
2019-05-29T22:29:17.899Z,61.90
2019-05-29T22:31:45.679Z,61.30
2019-05-29T22:34:22.578Z,62.11
2019-05-29T22:36:59.650Z,62.34
2019-05-29T22:39:34.732Z,61.79
2019-05-29T22:42:09.944Z,61.49
2019-05-29T22:44:45.603Z,62.30
2019-05-29T22:47:21.203Z,61.59
2019-05-29T22:49:57.837Z,61.93
2019-05-29T22:52:33.451Z,61.30
2019-05-29T22:55:09.066Z,60.67
2019-05-29T22:57:44.243Z,61.21
2019-05-29T23:00:20.075Z,61.64
2019-05-29T23:02:56.143Z,61.20
2019-05-29T23:05:31.482Z,61.07
2019-05-29T23:08:08.919Z,60.51
2019-05-29T23:10:44.525Z,59.13
2019-05-29T23:13:20.571Z,60.20
2019-05-29T23:15:56.646Z,60.90
2019-05-29T23:18:31.928Z,61.39
2019-05-29T23:21:43.026Z,60.23
2019-05-29T23:24:18.377Z,59.76
2019-05-29T23:26:54.898Z,59.64
2019-05-29T23:29:30.024Z,59.29
2019-05-29T23:32:05.059Z,60.22
2019-05-29T23:34:41.333Z,60.45
2019-05-29T23:37:16.425Z,60.33
2019-05-29T23:39:51.441Z,60.57
2019-05-29T23:42:26.492Z,60.51
2019-05-29T23:45:05.602Z,59.95
2019-05-29T23:47:47.450Z,60.59
2019-05-29T23:50:23.829Z,60.51
2019-05-29T23:52:59.665Z,60.43
2019-05-29T23:55:34.830Z,60.65
2019-05-29T23:58:09.849Z,59.92
